Time;durP1;ratioP1;P1;durP2;ratioP2;P2;SDS_P1;SDS_P2;PMS_P1;PMS_P2;Temp;Humidity;BMP_temperature;BMP_pressure;BME280_temperature;BME280_humidity;BME280_pressure;Samples;Min_cycle;Max_cycle;Signal;HPM_P1;HPM_P2
2022/04/07 00:00:18;;;;;;;2.40;2.13;;;11.90;99.90;;;;;;1039298;28;20036;-61
2022/04/07 00:00:49;;;;;;;4.13;2.15;;;11.90;99.90;;;;;;1039544;28;20487;-64
2022/04/07 00:01:19;;;;;;;2.23;2.00;;;11.90;99.90;;;;;;1039305;28;20463;-62
2022/04/07 00:01:50;;;;;;;3.73;2.40;;;11.90;99.90;;;;;;1039467;28;20018;-62
2022/04/07 00:02:20;;;;;;;4.27;2.40;;;11.90;99.90;;;;;;1039234;28;20018;-64
2022/04/07 00:02:51;;;;;;;2.70;2.43;;;11.90;99.90;;;;;;1039188;28;20507;-61
2022/04/07 00:03:22;;;;;;;3.57;2.13;;;11.90;99.90;;;;;;1038890;28;20112;-61
2022/04/07 00:03:52;;;;;;;3.63;2.40;;;11.90;99.90;;;;;;1039220;28;20018;-64
2022/04/07 00:04:23;;;;;;;3.00;2.70;;;11.90;99.90;;;;;;1038749;28;20715;-62
2022/04/07 00:04:54;;;;;;;3.83;2.47;;;11.90;99.90;;;;;;1039108;28;20029;-62
2022/04/07 00:05:24;;;;;;;3.03;2.37;;;11.90;99.90;;;;;;1034936;28;20038;-62
2022/04/07 00:05:55;;;;;;;3.53;2.27;;;11.90;99.90;;;;;;1037956;28;20025;-61
2022/04/07 00:06:25;;;;;;;4.40;2.60;;;11.90;99.90;;;;;;1043135;28;20032;-63
2022/04/07 00:06:56;;;;;;;3.07;2.20;;;11.90;99.90;;;;;;1043093;28;20069;-62
2022/04/07 00:07:26;;;;;;;2.77;2.20;;;11.90;99.90;;;;;;1043488;28;20051;-62
2022/04/07 00:07:57;;;;;;;3.87;2.60;;;11.90;99.90;;;;;;1043638;28;20091;-62
2022/04/07 00:08:28;;;;;;;2.20;2.00;;;11.90;99.90;;;;;;1043336;28;20484;-62
2022/04/07 00:09:02;;;;;;;4.43;2.17;;;11.90;99.90;;;;;;1043244;28;20470;-62
2022/04/07 00:09:34;;;;;;;4.82;2.47;;;11.90;99.90;;;;;;1042681;28;20475;-62
2022/04/07 00:10:05;;;;;;;4.00;2.28;;;11.90;99.90;;;;;;1043183;28;20446;-61
2022/04/07 00:10:36;;;;;;;3.13;2.53;;;11.90;99.90;;;;;;1043263;28;20100;-61
2022/04/07 00:11:07;;;;;;;4.50;2.42;;;11.90;99.90;;;;;;1043590;28;20119;-62
2022/04/07 00:11:38;;;;;;;2.85;2.08;;;11.90;99.90;;;;;;1043504;28;20049;-62
2022/04/07 00:12:09;;;;;;;2.50;1.90;;;11.90;99.90;;;;;;1043407;28;20066;-62
2022/04/07 00:12:39;;;;;;;3.13;2.13;;;11.90;99.90;;;;;;1043714;28;20009;-62
2022/04/07 00:13:10;;;;;;;3.53;2.10;;;11.90;99.90;;;;;;1043082;28;20172;-63
2022/04/07 00:13:41;;;;;;;2.87;2.23;;;11.90;99.90;;;;;;1039152;28;20026;-64
2022/04/07 00:14:12;;;;;;;3.43;2.27;;;11.90;99.90;;;;;;1034674;28;20069;-63
2022/04/07 00:14:42;;;;;;;2.23;1.60;;;11.90;99.90;;;;;;1035240;28;20068;-63
2022/04/07 00:15:13;;;;;;;2.80;1.60;;;11.90;99.90;;;;;;1038785;28;20187;-63
2022/04/07 00:15:44;;;;;;;3.07;2.20;;;11.90;99.90;;;;;;1039572;28;20487;-62
2022/04/07 00:16:14;;;;;;;2.67;2.05;;;11.90;99.90;;;;;;1042933;28;20009;-62
2022/04/07 00:16:45;;;;;;;3.57;2.30;;;11.90;99.90;;;;;;1043788;28;20083;-62
2022/04/07 00:17:16;;;;;;;3.30;1.83;;;11.90;99.90;;;;;;1040669;28;20087;-62
2022/04/07 00:17:46;;;;;;;2.63;1.93;;;11.90;99.90;;;;;;1039651;28;20104;-63
2022/04/07 00:18:17;;;;;;;3.43;2.20;;;11.90;99.90;;;;;;1039177;28;20256;-62
2022/04/07 00:18:48;;;;;;;2.60;2.10;;;11.90;99.90;;;;;;1039961;28;20022;-62
2022/04/07 00:19:20;;;;;;;3.30;2.50;;;11.90;99.90;;;;;;1039949;28;20437;-62
2022/04/07 00:19:51;;;;;;;3.63;2.30;;;11.90;99.90;;;;;;1039844;28;20021;-62
2022/04/07 00:20:22;;;;;;;2.77;1.90;;;11.90;99.90;;;;;;1039750;28;20093;-64
2022/04/07 00:20:53;;;;;;;3.17;1.80;;;11.90;99.90;;;;;;1040122;28;20009;-64
2022/04/07 00:21:35;;;;;;;4.10;2.08;;;11.90;99.90;;;;;;1039775;28;20009;-62
2022/04/07 00:22:06;;;;;;;4.43;1.90;;;11.90;99.90;;;;;;1040194;28;20025;-63
2022/04/07 00:22:36;;;;;;;2.93;2.30;;;11.90;99.90;;;;;;1039970;28;20104;-63
2022/04/07 00:23:07;;;;;;;2.10;1.90;;;11.90;99.90;;;;;;1040270;28;20093;-63
2022/04/07 00:23:41;;;;;;;4.53;2.30;;;11.90;99.90;;;;;;1039777;28;20005;-63
2022/04/07 00:24:12;;;;;;;3.58;2.38;;;11.90;99.90;;;;;;1035788;28;20064;-63
2022/04/07 00:24:43;;;;;;;2.33;2.10;;;11.90;99.90;;;;;;1031631;28;20141;-63
2022/04/07 00:25:13;;;;;;;3.87;2.20;;;11.90;99.90;;;;;;1028330;28;20038;-63
2022/04/07 00:25:44;;;;;;;3.43;2.20;;;11.90;99.90;;;;;;1027792;28;20071;-61
2022/04/07 00:26:14;;;;;;;2.90;2.40;;;11.90;99.90;;;;;;1028078;28;20035;-61
2022/04/07 00:26:45;;;;;;;2.20;1.80;;;11.90;99.90;;;;;;1027797;28;20050;-63
2022/04/07 00:27:16;;;;;;;4.80;2.00;;;11.90;99.90;;;;;;1031774;28;20409;-63
2022/04/07 00:27:46;;;;;;;3.57;2.13;;;11.90;99.90;;;;;;1035873;28;20440;-63
2022/04/07 00:28:17;;;;;;;2.47;2.00;;;11.90;99.90;;;;;;1035769;28;20033;-63
2022/04/07 00:28:50;;;;;;;5.97;2.40;;;12.00;99.90;;;;;;1035673;28;20010;-63
2022/04/07 00:29:21;;;;;;;3.15;2.22;;;11.90;99.90;;;;;;1035747;28;20049;-65
2022/04/07 00:29:52;;;;;;;3.33;2.20;;;11.90;99.90;;;;;;1031498;28;20007;-63
2022/04/07 00:30:23;;;;;;;4.33;2.50;;;11.90;99.90;;;;;;1032392;28;20422;-63
2022/04/07 00:30:53;;;;;;;2.73;2.03;;;11.90;99.90;;;;;;1035512;28;20077;-63
2022/04/07 00:31:24;;;;;;;3.13;1.90;;;11.90;99.90;;;;;;1036163;28;20021;-63
2022/04/07 00:31:57;;;;;;;3.55;2.20;;;11.90;99.90;;;;;;1035990;28;20492;-63
2022/04/07 00:32:28;;;;;;;2.75;1.98;;;11.90;99.90;;;;;;1036225;28;20036;-63
2022/04/07 00:32:59;;;;;;;3.47;2.00;;;11.90;99.90;;;;;;1035938;28;20330;-63
2022/04/07 00:33:29;;;;;;;3.27;2.13;;;11.90;99.90;;;;;;1036313;28;20017;-63
2022/04/07 00:34:00;;;;;;;3.17;2.17;;;11.90;99.90;;;;;;1038523;28;20022;-63
2022/04/07 00:34:30;;;;;;;3.20;2.00;;;11.90;99.90;;;;;;1040274;28;20020;-63
2022/04/07 00:35:01;;;;;;;3.33;2.23;;;11.90;99.90;;;;;;1040036;28;20101;-63
2022/04/07 00:35:32;;;;;;;3.00;2.10;;;11.90;99.90;;;;;;1039800;28;20022;-63
2022/04/07 00:36:04;;;;;;;4.77;2.30;;;11.90;99.90;;;;;;1039764;28;20021;-63
2022/04/07 00:36:34;;;;;;;3.13;2.25;;;11.90;99.90;;;;;;1039993;28;20018;-63
2022/04/07 00:37:05;;;;;;;3.10;2.20;;;11.90;99.90;;;;;;1039716;28;20025;-63
2022/04/07 00:37:36;;;;;;;5.30;2.40;;;11.90;99.90;;;;;;1040324;28;20019;-63
2022/04/07 00:38:07;;;;;;;4.23;2.37;;;11.90;99.90;;;;;;1040028;28;20036;-63
2022/04/07 00:38:37;;;;;;;3.87;1.90;;;11.90;99.90;;;;;;1040316;28;20411;-63
2022/04/07 00:39:08;;;;;;;3.43;2.33;;;11.90;99.90;;;;;;1040091;28;20468;-63
2022/04/07 00:39:38;;;;;;;3.80;2.43;;;11.90;99.90;;;;;;1041268;28;20021;-62
2022/04/07 00:40:11;;;;;;;3.33;2.00;;;11.90;99.90;;;;;;1039907;28;20026;-63
2022/04/07 00:40:42;;;;;;;4.65;2.95;;;11.90;99.90;;;;;;1040034;28;20185;-63
2022/04/07 00:41:12;;;;;;;4.40;1.93;;;11.90;99.90;;;;;;1035575;28;20052;-63
2022/04/07 00:41:43;;;;;;;3.57;1.90;;;11.90;99.90;;;;;;1036453;28;20013;-63
2022/04/07 00:42:13;;;;;;;4.43;2.50;;;11.90;99.90;;;;;;1039809;28;20014;-62
2022/04/07 00:42:49;;;;;;;3.77;1.97;;;11.90;99.90;;;;;;1039902;28;20021;-63
2022/04/07 00:43:30;;;;;;;2.75;2.00;;;11.90;99.90;;;;;;1040056;28;20013;-62
2022/04/07 00:44:00;;;;;;;3.92;2.38;;;11.90;99.90;;;;;;1040359;28;20076;-63
2022/04/07 00:44:31;;;;;;;4.93;1.83;;;11.90;99.90;;;;;;1039721;28;20067;-63
2022/04/07 00:45:04;;;;;;;4.13;2.03;;;11.90;99.90;;;;;;1040247;28;20142;-63
2022/04/07 00:45:34;;;;;;;3.40;1.92;;;11.90;99.90;;;;;;1039821;28;20009;-63
2022/04/07 00:46:05;;;;;;;4.80;2.17;;;11.90;99.90;;;;;;1040160;28;20022;-63
2022/04/07 00:46:37;;;;;;;3.87;2.23;;;11.90;99.90;;;;;;1039984;28;20071;-63
2022/04/07 00:47:08;;;;;;;3.53;2.10;;;11.90;99.90;;;;;;1040054;28;20020;-63
2022/04/07 00:47:38;;;;;;;5.13;2.43;;;11.90;99.90;;;;;;1039969;28;20017;-63
2022/04/07 00:48:09;;;;;;;3.50;2.27;;;11.90;99.90;;;;;;1040087;28;20101;-63
2022/04/07 00:48:39;;;;;;;4.57;2.47;;;11.90;99.90;;;;;;1040121;28;20018;-63
2022/04/07 00:49:10;;;;;;;2.03;1.63;;;11.90;99.90;;;;;;1040194;28;20016;-63
2022/04/07 00:49:41;;;;;;;4.27;1.90;;;11.90;99.90;;;;;;1040129;28;20457;-63
2022/04/07 00:50:13;;;;;;;3.50;1.80;;;11.90;99.90;;;;;;1040125;28;20033;-63
2022/04/07 00:50:43;;;;;;;2.97;2.05;;;11.90;99.90;;;;;;1040017;28;20005;-62
2022/04/07 00:51:14;;;;;;;6.67;2.57;;;11.90;99.90;;;;;;1043435;28;20043;-62
2022/04/07 00:51:45;;;;;;;5.40;2.30;;;11.90;99.90;;;;;;1044083;28;20013;-62
2022/04/07 00:52:16;;;;;;;2.70;1.90;;;11.90;99.90;;;;;;1043811;28;20092;-63
2022/04/07 00:52:53;;;;;;;3.95;1.95;;;11.90;99.90;;;;;;1044004;28;20510;-62
2022/04/07 00:53:24;;;;;;;5.07;2.67;;;11.90;99.90;;;;;;1044350;28;20005;-62
2022/04/07 00:53:55;;;;;;;3.78;1.80;;;11.90;99.90;;;;;;1044082;28;20031;-62
2022/04/07 00:54:26;;;;;;;4.93;2.10;;;11.90;99.90;;;;;;1044306;28;20583;-64
2022/04/07 00:54:57;;;;;;;4.90;2.17;;;11.90;99.90;;;;;;1040905;28;20082;-61
2022/04/07 00:55:28;;;;;;;4.15;2.15;;;11.90;99.90;;;;;;1040130;28;20039;-64
2022/04/07 00:56:01;;;;;;;4.25;1.98;;;11.90;99.90;;;;;;1040114;28;20017;-62
2022/04/07 00:56:32;;;;;;;4.28;2.00;;;11.90;99.90;;;;;;1040177;28;20092;-62
2022/04/07 00:57:03;;;;;;;3.28;1.73;;;11.90;99.90;;;;;;1040130;28;20010;-62
2022/04/07 00:57:36;;;;;;;2.78;1.92;;;11.90;99.90;;;;;;1040316;28;20044;-62
2022/04/07 00:58:07;;;;;;;3.30;1.85;;;11.90;99.90;;;;;;1039594;28;20014;-63
2022/04/07 00:58:38;;;;;;;4.47;1.90;;;11.90;99.90;;;;;;1039949;28;20009;-63
2022/04/07 00:59:16;;;;;;;3.42;1.73;;;11.90;99.90;;;;;;1039497;28;20041;-64
2022/04/07 00:59:47;;;;;;;5.90;2.38;;;11.90;99.90;;;;;;1040285;28;20096;-62
2022/04/07 01:00:18;;;;;;;3.60;2.03;;;11.90;99.90;;;;;;1039930;28;20249;-62
2022/04/07 01:00:48;;;;;;;4.57;2.30;;;11.90;99.90;;;;;;1040237;28;20088;-62
2022/04/07 01:01:22;;;;;;;3.33;2.37;;;11.90;99.90;;;;;;1039429;28;20005;-62
2022/04/07 01:01:53;;;;;;;2.67;2.13;;;11.90;99.90;;;;;;1039761;28;20033;-61
2022/04/07 01:02:24;;;;;;;5.30;2.17;;;11.90;99.90;;;;;;1039644;28;20031;-62
2022/04/07 01:02:55;;;;;;;3.40;1.85;;;11.90;99.90;;;;;;1036364;28;20346;-62
2022/04/07 01:03:27;;;;;;;9.57;2.90;;;12.00;99.90;;;;;;1039492;28;20147;-62
2022/04/07 01:03:58;;;;;;;4.55;2.05;;;11.90;99.90;;;;;;1039925;28;20474;-62
2022/04/07 01:04:28;;;;;;;3.38;2.22;;;11.90;99.90;;;;;;1039477;28;20013;-63
2022/04/07 01:04:59;;;;;;;3.53;1.97;;;11.90;99.90;;;;;;1040256;28;20108;-62
2022/04/07 01:05:31;;;;;;;6.20;2.57;;;11.90;99.90;;;;;;1039563;28;20533;-62
2022/04/07 01:06:02;;;;;;;3.60;1.83;;;11.90;99.90;;;;;;1042261;28;20404;-62
2022/04/07 01:06:33;;;;;;;4.65;1.77;;;11.90;99.90;;;;;;1043573;28;20013;-62
2022/04/07 01:07:06;;;;;;;3.67;2.23;;;11.90;99.90;;;;;;1043991;28;20464;-62
2022/04/07 01:07:37;;;;;;;3.25;1.85;;;11.90;99.90;;;;;;1043794;28;20009;-62
2022/04/07 01:08:09;;;;;;;5.53;2.20;;;11.90;99.90;;;;;;1043992;28;20025;-62
2022/04/07 01:08:39;;;;;;;2.10;1.77;;;11.90;99.90;;;;;;1043720;28;20025;-63
2022/04/07 01:09:11;;;;;;;4.10;1.73;;;11.90;99.90;;;;;;1039687;28;20021;-62
2022/04/07 01:09:42;;;;;;;4.30;2.13;;;11.90;99.90;;;;;;1039651;28;20014;-63
2022/04/07 01:10:12;;;;;;;4.27;2.33;;;11.90;99.90;;;;;;1040076;28;20318;-62
2022/04/07 01:10:45;;;;;;;4.00;2.10;;;11.90;99.90;;;;;;1039505;28;20401;-62
2022/04/07 01:11:17;;;;;;;7.00;2.55;;;11.90;99.90;;;;;;1040151;28;20041;-62
2022/04/07 01:11:50;;;;;;;3.78;1.70;;;11.90;99.90;;;;;;1043695;28;20025;-62
2022/04/07 01:12:21;;;;;;;3.65;2.17;;;11.90;99.90;;;;;;1044062;28;20013;-67
2022/04/07 01:12:51;;;;;;;5.00;2.17;;;11.90;99.90;;;;;;1043817;28;20365;-62
2022/04/07 01:13:23;;;;;;;3.57;1.93;;;11.90;99.90;;;;;;1043727;28;20118;-62
2022/04/07 01:13:53;;;;;;;3.47;1.67;;;11.90;99.90;;;;;;1043920;28;20372;-62
2022/04/07 01:14:24;;;;;;;3.47;2.03;;;11.90;99.90;;;;;;1043841;28;20634;-62
2022/04/07 01:15:00;;;;;;;4.27;2.03;;;11.90;99.90;;;;;;1043900;28;20064;-62
2022/04/07 01:15:30;;;;;;;3.80;2.08;;;11.90;99.90;;;;;;1044209;28;20072;-62
2022/04/07 01:16:01;;;;;;;4.17;2.00;;;11.90;99.90;;;;;;1042892;28;20025;-62
2022/04/07 01:16:32;;;;;;;4.33;1.90;;;11.90;99.90;;;;;;1040110;28;20483;-62
2022/04/07 01:17:03;;;;;;;3.42;2.30;;;11.90;99.90;;;;;;1039097;28;20486;-62
2022/04/07 01:17:35;;;;;;;4.80;2.10;;;11.90;99.90;;;;;;1036039;28;20369;-62
2022/04/07 01:18:05;;;;;;;2.92;2.13;;;11.90;99.90;;;;;;1035898;28;20049;-62
2022/04/07 01:18:36;;;;;;;3.33;2.10;;;11.90;99.90;;;;;;1036116;28;20022;-63
2022/04/07 01:19:06;;;;;;;2.50;2.10;;;11.90;99.90;;;;;;1035853;28;20026;-61
2022/04/07 01:19:37;;;;;;;4.00;1.70;;;11.90;99.90;;;;;;1036094;28;20550;-61
2022/04/07 01:20:08;;;;;;;4.70;2.47;;;11.90;99.90;;;;;;1037790;28;20096;-64
2022/04/07 01:20:39;;;;;;;6.13;1.90;;;11.90;99.90;;;;;;1040151;28;20021;-61
2022/04/07 01:21:11;;;;;;;6.43;2.40;;;11.90;99.90;;;;;;1039893;28;20024;-62
2022/04/07 01:21:42;;;;;;;4.53;2.22;;;11.90;99.90;;;;;;1040297;28;20096;-63
2022/04/07 01:22:14;;;;;;;5.72;2.33;;;11.90;99.90;;;;;;1039774;28;20036;-61
2022/04/07 01:22:48;;;;;;;2.72;1.90;;;11.90;99.90;;;;;;1040430;28;20018;-63
2022/04/07 01:23:19;;;;;;;4.25;2.30;;;11.90;99.90;;;;;;1039713;28;20009;-64
2022/04/07 01:24:01;;;;;;;4.13;2.53;;;11.90;99.90;;;;;;1040016;28;20052;-62
2022/04/07 01:24:32;;;;;;;6.07;2.90;;;11.90;99.90;;;;;;1039744;28;20244;-62
2022/04/07 01:25:03;;;;;;;5.30;2.63;;;11.90;99.90;;;;;;1040089;28;20085;-62
2022/04/07 01:25:35;;;;;;;3.28;2.60;;;11.90;99.90;;;;;;1039389;28;20016;-62
2022/04/07 01:26:06;;;;;;;5.07;2.58;;;11.90;99.90;;;;;;1039841;28;20009;-64
2022/04/07 01:26:43;;;;;;;5.82;2.47;;;11.90;99.90;;;;;;1039457;28;20056;-63
2022/04/07 01:27:16;;;;;;;3.10;1.98;;;11.90;99.90;;;;;;1039627;28;20092;-63
2022/04/07 01:27:49;;;;;;;5.35;2.38;;;11.90;99.90;;;;;;1039545;28;20025;-61
2022/04/07 01:28:19;;;;;;;3.88;2.28;;;11.90;99.90;;;;;;1039636;28;20144;-63
2022/04/07 01:28:50;;;;;;;3.67;2.07;;;11.90;99.90;;;;;;1039579;28;20009;-64
2022/04/07 01:29:25;;;;;;;3.83;2.03;;;11.90;99.90;;;;;;1039767;28;20013;-61
2022/04/07 01:29:57;;;;;;;3.20;2.30;;;11.90;99.90;;;;;;1039965;28;20089;-62
2022/04/07 01:30:28;;;;;;;5.15;2.15;;;11.90;99.90;;;;;;1035119;28;20413;-62
2022/04/07 01:30:58;;;;;;;3.43;2.47;;;11.90;99.90;;;;;;1031250;28;20544;-62
2022/04/07 01:31:29;;;;;;;4.13;2.30;;;11.90;99.90;;;;;;1031355;28;20338;-62
2022/04/07 01:32:07;;;;;;;4.07;1.83;;;11.90;99.90;;;;;;1031754;28;20011;-62
2022/04/07 01:32:47;;;;;;;5.22;2.88;;;11.90;99.90;;;;;;1031461;28;20003;-62
2022/04/07 01:33:18;;;;;;;4.25;1.98;;;11.90;99.90;;;;;;1031709;28;20022;-63
2022/04/07 01:33:49;;;;;;;4.20;2.20;;;11.90;99.90;;;;;;1031267;28;20006;-62
2022/04/07 01:34:20;;;;;;;5.67;2.53;;;11.90;99.90;;;;;;1032919;28;20042;-62
2022/04/07 01:34:50;;;;;;;4.17;2.47;;;11.90;99.90;;;;;;1035579;28;20105;-62
2022/04/07 01:35:24;;;;;;;3.43;2.00;;;11.90;99.90;;;;;;1035664;28;20775;-63
2022/04/07 01:35:55;;;;;;;4.28;2.35;;;11.90;99.90;;;;;;1038391;28;20500;-63
2022/04/07 01:36:28;;;;;;;4.13;2.33;;;11.90;99.90;;;;;;1044021;28;20082;-62
2022/04/07 01:37:00;;;;;;;6.30;2.08;;;11.90;99.90;;;;;;1043753;28;20363;-63
2022/04/07 01:37:31;;;;;;;3.03;2.40;;;11.90;99.90;;;;;;1043771;28;20005;-62
2022/04/07 01:38:02;;;;;;;6.13;2.15;;;11.90;99.90;;;;;;1043702;28;20432;-63
2022/04/07 01:38:32;;;;;;;4.33;2.13;;;11.90;99.90;;;;;;1043832;28;20435;-63
2022/04/07 01:39:04;;;;;;;4.40;2.00;;;11.90;99.90;;;;;;1041604;28;20012;-62
2022/04/07 01:39:36;;;;;;;5.13;1.85;;;11.90;99.90;;;;;;1039873;28;20439;-62
2022/04/07 01:40:13;;;;;;;4.43;1.75;;;11.90;99.90;;;;;;1039566;28;20017;-62
2022/04/07 01:40:44;;;;;;;7.18;2.38;;;11.90;99.90;;;;;;1039938;28;20436;-63
2022/04/07 01:41:15;;;;;;;3.38;2.20;;;11.90;99.90;;;;;;1039341;28;20295;-63
2022/04/07 01:41:46;;;;;;;3.42;1.67;;;11.90;99.90;;;;;;1039839;28;20020;-63
2022/04/07 01:42:17;;;;;;;2.77;1.60;;;11.90;99.90;;;;;;1039437;28;20095;-63
2022/04/07 01:42:52;;;;;;;3.22;1.70;;;11.90;99.90;;;;;;1040085;28;20484;-63
2022/04/07 01:43:23;;;;;;;3.10;1.55;;;11.90;99.90;;;;;;1039768;28;20013;-63
2022/04/07 01:43:57;;;;;;;2.00;1.53;;;11.90;99.90;;;;;;1039945;28;20025;-63
2022/04/07 01:44:29;;;;;;;4.25;2.03;;;11.90;99.90;;;;;;1039597;28;20017;-63
2022/04/07 01:45:02;;;;;;;3.33;1.70;;;11.90;99.90;;;;;;1039857;28;20373;-62
2022/04/07 01:45:34;;;;;;;3.58;2.30;;;11.90;99.90;;;;;;1039335;28;20479;-62
2022/04/07 01:46:06;;;;;;;4.78;2.00;;;11.90;99.90;;;;;;1039852;28;20477;-62
2022/04/07 01:46:38;;;;;;;5.10;1.90;;;11.90;99.90;;;;;;1039582;28;20068;-62
2022/04/07 01:47:11;;;;;;;5.32;1.95;;;11.90;99.90;;;;;;1039946;28;20018;-62
2022/04/07 01:47:43;;;;;;;3.00;1.83;;;11.90;99.90;;;;;;1039907;28;20029;-62
2022/04/07 01:48:16;;;;;;;5.22;2.00;;;11.90;99.90;;;;;;1039399;28;20028;-63
2022/04/07 01:48:47;;;;;;;3.92;2.03;;;11.90;99.90;;;;;;1039581;28;20017;-63
2022/04/07 01:49:20;;;;;;;3.35;2.00;;;11.90;99.90;;;;;;1039554;28;20554;-63
2022/04/07 01:49:56;;;;;;;3.58;1.80;;;11.90;99.90;;;;;;1039544;28;20009;-63
2022/04/07 01:50:29;;;;;;;4.25;1.58;;;11.90;99.90;;;;;;1039741;28;20024;-62
2022/04/07 01:51:00;;;;;;;2.83;1.83;;;11.90;99.90;;;;;;1039963;28;20025;-63
2022/04/07 01:51:33;;;;;;;2.90;1.98;;;11.90;99.90;;;;;;1039847;28;20052;-62
2022/04/07 01:52:05;;;;;;;4.72;1.65;;;11.90;99.90;;;;;;1039605;28;20135;-62
2022/04/07 01:52:41;;;;;;;3.72;1.92;;;11.90;99.90;;;;;;1039391;28;20018;-62
2022/04/07 01:53:12;;;;;;;7.53;2.20;;;11.90;99.90;;;;;;1039610;28;20045;-64
2022/04/07 01:53:44;;;;;;;5.35;2.38;;;11.90;99.90;;;;;;1039651;28;20101;-63
2022/04/07 01:54:15;;;;;;;5.40;2.25;;;11.90;99.90;;;;;;1039845;28;20017;-63
2022/04/07 01:54:47;;;;;;;4.43;1.92;;;11.90;99.90;;;;;;1040019;28;20018;-64
2022/04/07 01:55:18;;;;;;;3.22;1.58;;;11.90;99.90;;;;;;1039895;28;20013;-64
2022/04/07 01:55:50;;;;;;;3.60;2.00;;;11.90;99.90;;;;;;1039877;28;20017;-63
2022/04/07 01:56:21;;;;;;;5.88;2.33;;;11.90;99.90;;;;;;1039926;28;20022;-64
2022/04/07 01:56:52;;;;;;;3.72;1.70;;;11.90;99.90;;;;;;1039441;28;20393;-63
2022/04/07 01:57:23;;;;;;;3.27;2.00;;;11.90;99.90;;;;;;1039679;28;20388;-63
2022/04/07 01:57:55;;;;;;;4.00;2.03;;;11.90;99.90;;;;;;1039512;28;20049;-63
2022/04/07 01:58:26;;;;;;;5.93;2.03;;;11.90;99.90;;;;;;1039409;28;20030;-63
2022/04/07 01:58:57;;;;;;;3.10;1.73;;;11.90;99.90;;;;;;1039836;28;20025;-64
2022/04/07 01:59:28;;;;;;;4.70;1.98;;;11.90;99.90;;;;;;1039602;28;20013;-64
2022/04/07 02:00:00;;;;;;;2.33;1.55;;;11.90;99.90;;;;;;1039829;28;20434;-63
2022/04/07 02:00:30;;;;;;;5.18;2.05;;;11.90;99.90;;;;;;1039744;28;20019;-63
2022/04/07 02:01:02;;;;;;;6.30;2.10;;;11.90;99.90;;;;;;1039904;28;20044;-64
2022/04/07 02:01:32;;;;;;;3.95;2.08;;;11.90;99.90;;;;;;1039358;28;20073;-64
2022/04/07 02:02:03;;;;;;;5.60;2.20;;;11.80;99.90;;;;;;1039459;28;20041;-65
2022/04/07 02:02:34;;;;;;;4.72;2.10;;;11.80;99.90;;;;;;1035175;28;20026;-63
2022/04/07 02:03:05;;;;;;;4.77;2.30;;;11.90;99.90;;;;;;1035465;28;20014;-63
2022/04/07 02:03:36;;;;;;;4.60;1.83;;;11.80;99.90;;;;;;1035514;28;20089;-63
2022/04/07 02:04:07;;;;;;;3.87;2.23;;;11.80;99.90;;;;;;1035445;28;20006;-63
2022/04/07 02:04:57;;;;;;;4.95;2.25;;;11.80;99.90;;;;;;1035725;28;20483;-63
2022/04/07 02:05:28;;;;;;;4.18;2.30;;;11.80;99.90;;;;;;1035419;28;20010;-63
2022/04/07 02:06:17;;;;;;;4.27;2.03;;;11.80;99.90;;;;;;1039059;28;20101;-63
2022/04/07 02:06:48;;;;;;;4.28;1.80;;;11.80;99.90;;;;;;1043640;28;20501;-64
2022/04/07 02:07:19;;;;;;;1.73;1.47;;;11.80;99.90;;;;;;1043492;28;20012;-63
2022/04/07 02:07:49;;;;;;;3.93;2.20;;;11.90;99.90;;;;;;1043726;28;20013;-63
2022/04/07 02:08:20;;;;;;;5.33;2.30;;;11.80;99.90;;;;;;1043717;28;20655;-65
2022/04/07 02:08:51;;;;;;;5.03;1.97;;;11.80;99.90;;;;;;1043558;28;20722;-63
2022/04/07 02:09:22;;;;;;;4.43;1.90;;;11.80;99.90;;;;;;1043459;28;20295;-63
2022/04/07 02:09:52;;;;;;;3.67;1.88;;;11.80;99.90;;;;;;1043475;28;20068;-64
2022/04/07 02:10:23;;;;;;;4.33;1.83;;;11.80;99.90;;;;;;1043647;28;20032;-64
2022/04/07 02:10:53;;;;;;;5.60;2.07;;;11.80;99.90;;;;;;1043387;28;20036;-63
2022/04/07 02:11:24;;;;;;;3.80;2.10;;;11.80;99.90;;;;;;1039580;28;20031;-63
2022/04/07 02:11:55;;;;;;;3.97;1.73;;;11.80;99.90;;;;;;1043518;28;20016;-63
2022/04/07 02:12:29;;;;;;;4.30;1.70;;;11.80;99.90;;;;;;1041116;28;20309;-62
2022/04/07 02:12:59;;;;;;;6.22;2.13;;;11.80;99.90;;;;;;1039372;28;20014;-62
2022/04/07 02:13:33;;;;;;;5.00;1.80;;;11.80;99.90;;;;;;1035421;28;20453;-62
2022/04/07 02:14:03;;;;;;;4.13;1.88;;;11.80;99.90;;;;;;1036461;28;20021;-64
2022/04/07 02:14:35;;;;;;;4.73;2.03;;;11.80;99.90;;;;;;1039367;28;20014;-62
2022/04/07 02:15:06;;;;;;;4.68;2.10;;;11.80;99.90;;;;;;1039485;28;20014;-64
2022/04/07 02:15:37;;;;;;;3.20;1.70;;;11.80;99.90;;;;;;1039914;28;20052;-61
2022/04/07 02:16:09;;;;;;;6.67;2.73;;;11.80;99.90;;;;;;1039181;28;20109;-62
2022/04/07 02:16:40;;;;;;;4.82;1.92;;;11.80;99.90;;;;;;1039633;28;20079;-62
2022/04/07 02:17:10;;;;;;;6.20;2.20;;;11.80;99.90;;;;;;1037415;28;20024;-61
2022/04/07 02:17:41;;;;;;;4.97;1.87;;;11.80;99.90;;;;;;1035548;28;20484;-62
2022/04/07 02:18:12;;;;;;;9.03;2.40;;;11.80;99.90;;;;;;1035142;28;20010;-62
2022/04/07 02:18:43;;;;;;;4.33;1.97;;;11.80;99.90;;;;;;1035556;28;20026;-62
2022/04/07 02:19:14;;;;;;;4.63;1.90;;;11.80;99.90;;;;;;1035389;28;20076;-62
2022/04/07 02:19:45;;;;;;;4.07;1.90;;;11.80;99.90;;;;;;1035601;28;20096;-62
2022/04/07 02:20:16;;;;;;;6.18;2.22;;;11.80;99.90;;;;;;1035164;28;20101;-62
2022/04/07 02:20:46;;;;;;;5.30;1.83;;;11.80;99.90;;;;;;1035613;28;20097;-62
2022/04/07 02:21:17;;;;;;;3.90;1.67;;;11.80;99.90;;;;;;1035188;28;20022;-63
2022/04/07 02:21:47;;;;;;;4.57;2.23;;;11.80;99.90;;;;;;1035979;28;20113;-64
2022/04/07 02:22:19;;;;;;;6.30;1.77;;;11.80;99.90;;;;;;1035715;28;20018;-62
2022/04/07 02:22:49;;;;;;;6.55;1.85;;;11.80;99.90;;;;;;1035843;28;20330;-62
2022/04/07 02:23:20;;;;;;;6.03;1.90;;;11.80;99.90;;;;;;1035549;28;20575;-62
2022/04/07 02:23:52;;;;;;;6.97;2.33;;;11.80;99.90;;;;;;1035825;28;20728;-62
2022/04/07 02:24:22;;;;;;;5.70;2.20;;;11.80;99.90;;;;;;1035554;28;20037;-61
2022/04/07 02:24:53;;;;;;;5.33;1.67;;;11.80;99.90;;;;;;1035959;28;20025;-62
2022/04/07 02:25:27;;;;;;;3.63;2.03;;;11.80;99.90;;;;;;1035479;28;20022;-63
2022/04/07 02:25:58;;;;;;;4.32;2.00;;;11.80;99.90;;;;;;1035966;28;20076;-64
2022/04/07 02:26:30;;;;;;;6.50;2.03;;;11.80;99.90;;;;;;1037478;28;20053;-64
2022/04/07 02:27:01;;;;;;;3.50;2.00;;;11.80;99.90;;;;;;1039965;28;20064;-63
2022/04/07 02:27:41;;;;;;;4.77;1.87;;;11.80;99.90;;;;;;1039638;28;20409;-63
2022/04/07 02:28:12;;;;;;;4.40;1.83;;;11.80;99.90;;;;;;1039249;28;20033;-63
2022/04/07 02:28:44;;;;;;;3.45;1.92;;;11.80;99.90;;;;;;1035278;28;20097;-64
2022/04/07 02:29:14;;;;;;;3.83;1.77;;;11.80;99.90;;;;;;1035353;28;20068;-63
2022/04/07 02:29:45;;;;;;;3.20;1.80;;;11.80;99.90;;;;;;1035608;28;20018;-61
2022/04/07 02:30:15;;;;;;;3.90;1.83;;;11.80;99.90;;;;;;1039617;28;20071;-64
2022/04/07 02:30:47;;;;;;;3.37;1.60;;;11.80;99.90;;;;;;1039652;28;20076;-61
2022/04/07 02:31:17;;;;;;;4.72;1.80;;;11.80;99.90;;;;;;1039349;28;20449;-64
2022/04/07 02:31:48;;;;;;;4.53;1.97;;;11.80;99.90;;;;;;1035119;28;20022;-64
2022/04/07 02:32:19;;;;;;;2.50;1.80;;;11.80;99.90;;;;;;1035204;28;20018;-61
2022/04/07 02:32:50;;;;;;;3.28;1.60;;;11.80;99.90;;;;;;1035235;28;20010;-62
2022/04/07 02:33:20;;;;;;;3.77;1.73;;;11.80;99.90;;;;;;1035380;28;20050;-64
2022/04/07 02:33:51;;;;;;;3.87;2.00;;;11.80;99.90;;;;;;1035644;28;20657;-63
2022/04/07 02:34:21;;;;;;;5.40;2.37;;;11.80;99.90;;;;;;1035153;28;20026;-64
2022/04/07 02:34:52;;;;;;;4.27;1.70;;;11.80;99.90;;;;;;1035323;28;20046;-64
2022/04/07 02:35:23;;;;;;;5.32;1.90;;;11.80;99.90;;;;;;1034641;28;20022;-61
2022/04/07 02:35:54;;;;;;;5.43;1.87;;;11.80;99.90;;;;;;1035554;28;20109;-63
2022/04/07 02:36:24;;;;;;;3.87;1.73;;;11.80;99.90;;;;;;1039188;28;20018;-63
2022/04/07 02:36:55;;;;;;;4.47;2.50;;;11.80;99.90;;;;;;1039369;28;20344;-63
2022/04/07 02:37:26;;;;;;;4.40;1.90;;;11.80;99.90;;;;;;1039351;28;20477;-63
2022/04/07 02:38:00;;;;;;;4.82;2.00;;;11.80;99.90;;;;;;1039603;28;20017;-63
2022/04/07 02:38:31;;;;;;;4.90;2.17;;;11.80;99.90;;;;;;1039111;28;20502;-63
2022/04/07 02:39:01;;;;;;;4.10;2.10;;;11.80;99.90;;;;;;1039302;28;20539;-63
2022/04/07 02:39:32;;;;;;;4.10;2.10;;;11.80;99.90;;;;;;1039248;28;20018;-63
2022/04/07 02:40:03;;;;;;;4.10;2.07;;;11.80;99.90;;;;;;1035231;28;20544;-63
2022/04/07 02:40:34;;;;;;;4.35;1.67;;;11.80;99.90;;;;;;1031120;28;20468;-63
2022/04/07 02:41:05;;;;;;;4.60;2.10;;;11.80;99.90;;;;;;1031288;28;20485;-63
2022/04/07 02:41:35;;;;;;;6.50;2.20;;;11.80;99.90;;;;;;1027375;28;20686;-63
2022/04/07 02:42:06;;;;;;;5.20;1.73;;;11.80;99.90;;;;;;1031054;28;20022;-63
2022/04/07 02:42:37;;;;;;;5.23;2.37;;;11.80;99.90;;;;;;1038908;28;20021;-63
2022/04/07 02:43:07;;;;;;;7.20;2.23;;;11.80;99.90;;;;;;1039300;28;20026;-63
2022/04/07 02:43:38;;;;;;;3.77;1.60;;;11.80;99.90;;;;;;1039866;28;20009;-64
2022/04/07 02:44:08;;;;;;;3.17;1.80;;;11.80;99.90;;;;;;1039583;28;20006;-63
2022/04/07 02:44:39;;;;;;;3.97;2.07;;;11.80;99.90;;;;;;1039258;28;20524;-63